createdAt,value
2018-12-24T00:03:47.440Z,8.90
2018-12-24T00:06:16.204Z,8.80
2018-12-24T00:08:47.460Z,8.50
2018-12-24T00:11:16.212Z,9.10
2018-12-24T00:13:44.940Z,8.60
2018-12-24T00:16:13.702Z,8.50
2018-12-24T00:18:42.429Z,8.10
2018-12-24T00:21:11.246Z,8.30
2018-12-24T00:26:08.476Z,8.10
2018-12-24T00:28:37.220Z,8.00
2018-12-24T00:31:05.987Z,7.90
2018-12-24T00:33:34.724Z,7.80
2018-12-24T00:36:03.493Z,7.70
2018-12-24T00:38:32.237Z,7.50
2018-12-24T00:41:00.991Z,7.50
2018-12-24T00:43:32.729Z,7.40
2018-12-24T00:46:01.471Z,7.00
2018-12-24T00:55:56.807Z,7.10
2018-12-24T00:58:25.584Z,7.00
2018-12-24T01:00:54.315Z,7.00
2018-12-24T01:05:58.384Z,6.90
2018-12-24T01:08:27.145Z,6.90
2018-12-24T01:10:55.940Z,7.70
2018-12-24T01:13:30.485Z,6.90
2018-12-24T01:15:59.203Z,6.90
2018-12-24T01:18:27.965Z,7.50
2018-12-24T01:20:56.707Z,6.80
2018-12-24T01:23:31.518Z,6.40
2018-12-24T01:28:28.760Z,6.80
2018-12-24T01:30:57.499Z,6.60
2018-12-24T01:33:28.144Z,5.90
2018-12-24T01:35:56.860Z,6.50
2018-12-24T01:38:25.547Z,6.50
2018-12-24T01:40:54.258Z,6.20
2018-12-24T01:43:26.024Z,5.80
2018-12-24T01:45:54.745Z,6.40
2018-12-24T01:48:23.490Z,6.40
2018-12-24T01:50:52.260Z,6.30
2018-12-24T01:53:22.998Z,6.30
2018-12-24T01:55:51.775Z,6.70
2018-12-24T01:58:20.543Z,5.90
2018-12-24T02:00:49.312Z,5.90
2018-12-24T02:03:23.081Z,6.20
2018-12-24T02:05:51.823Z,6.20
2018-12-24T02:08:20.528Z,6.10
2018-12-24T02:10:49.284Z,6.20
2018-12-24T02:13:21.054Z,5.50
2018-12-24T02:15:49.859Z,6.10
2018-12-24T02:20:47.116Z,5.90
2018-12-24T02:23:17.837Z,5.80
2018-12-24T02:25:46.592Z,5.30
2018-12-24T02:28:15.317Z,6.30
2018-12-24T02:30:44.086Z,5.70
2018-12-24T02:33:12.807Z,6.20
2018-12-24T02:35:41.537Z,5.60
2018-12-24T02:38:10.305Z,5.60
2018-12-24T02:43:09.493Z,4.70
2018-12-24T02:45:38.221Z,5.60
2018-12-24T02:50:35.463Z,5.20
2018-12-24T02:58:01.156Z,5.20
2018-12-24T03:00:29.873Z,4.70
2018-12-24T03:03:18.679Z,5.30
2018-12-24T03:05:47.420Z,5.30
2018-12-24T03:08:16.179Z,5.20
2018-12-24T03:10:59.121Z,5.20
2018-12-24T03:13:27.879Z,5.20
2018-12-24T03:15:56.613Z,5.30
2018-12-24T03:18:25.370Z,5.20
2018-12-24T03:25:52.023Z,5.00
2018-12-24T03:28:20.779Z,5.10
2018-12-24T03:30:49.567Z,5.10
2018-12-24T03:33:18.349Z,5.00
2018-12-24T03:35:47.161Z,5.00
2018-12-24T03:38:15.879Z,5.20
2018-12-24T03:40:44.565Z,5.10
2018-12-24T03:43:13.319Z,4.90
2018-12-24T03:45:42.031Z,5.90
2018-12-24T03:48:10.726Z,4.80
2018-12-24T03:50:39.419Z,4.90
2018-12-24T03:53:08.107Z,4.90
2018-12-24T03:55:36.802Z,5.20
2018-12-24T03:58:05.492Z,5.00
2018-12-24T04:00:34.189Z,4.50
2018-12-24T04:03:02.871Z,4.80
2018-12-24T04:05:31.581Z,4.70
2018-12-24T04:08:00.256Z,4.80
2018-12-24T04:10:28.956Z,4.70
2018-12-24T04:12:57.651Z,4.80
2018-12-24T04:15:26.387Z,4.70
2018-12-24T04:17:55.078Z,4.60
2018-12-24T04:20:23.772Z,4.40
2018-12-24T04:22:55.732Z,4.10
2018-12-24T04:25:24.443Z,4.80
2018-12-24T04:27:53.127Z,4.30
2018-12-24T04:30:21.827Z,4.30
2018-12-24T04:32:50.511Z,4.30
2018-12-24T04:35:19.223Z,4.30
2018-12-24T04:37:47.903Z,4.20
2018-12-24T04:40:16.606Z,4.20
2018-12-24T04:42:45.296Z,4.20
2018-12-24T04:45:13.984Z,4.20
2018-12-24T04:47:42.767Z,4.20
2018-12-24T04:50:11.465Z,4.20
2018-12-24T04:52:41.139Z,4.20
2018-12-24T04:55:09.810Z,4.20
2018-12-24T04:57:38.510Z,4.10
2018-12-24T05:00:07.367Z,4.10
2018-12-24T05:02:36.074Z,4.20
2018-12-24T05:05:04.759Z,4.20
2018-12-24T05:07:33.459Z,4.20
2018-12-24T05:10:02.147Z,4.20
2018-12-24T05:12:30.847Z,4.10
2018-12-24T05:14:59.537Z,4.00
2018-12-24T05:17:28.235Z,4.00
2018-12-24T05:19:56.919Z,3.90
2018-12-24T05:22:25.607Z,4.00
2018-12-24T05:24:54.335Z,4.00
2018-12-24T05:27:23.023Z,4.00
2018-12-24T05:29:51.723Z,4.00
2018-12-24T05:32:20.416Z,4.10
2018-12-24T05:34:49.115Z,4.00
2018-12-24T05:37:17.800Z,4.00
2018-12-24T05:39:46.555Z,4.00
2018-12-24T05:42:16.148Z,4.00
2018-12-24T05:44:44.852Z,4.10
2018-12-24T05:47:13.541Z,4.10
2018-12-24T05:49:42.239Z,4.10
2018-12-24T05:52:10.940Z,4.10
2018-12-24T05:54:39.666Z,4.10
2018-12-24T05:57:08.347Z,4.10
2018-12-24T05:59:37.048Z,4.10
2018-12-24T06:02:05.735Z,4.10
2018-12-24T06:04:34.443Z,4.20
2018-12-24T06:07:03.123Z,4.10
2018-12-24T06:09:31.848Z,4.20
2018-12-24T06:12:00.603Z,4.20
2018-12-24T06:14:29.300Z,4.20
2018-12-24T06:16:57.991Z,4.10
2018-12-24T06:19:26.691Z,4.10
2018-12-24T06:21:56.341Z,3.90
2018-12-24T06:24:25.049Z,3.90
2018-12-24T06:26:53.783Z,3.80
2018-12-24T06:29:22.649Z,3.70
2018-12-24T06:31:51.375Z,3.80
2018-12-24T06:34:20.058Z,3.90
2018-12-24T06:36:48.787Z,3.90
2018-12-24T06:39:17.488Z,3.80
2018-12-24T06:41:46.199Z,3.90
2018-12-24T06:44:14.887Z,3.80
2018-12-24T06:46:43.591Z,3.80
2018-12-24T06:49:12.283Z,3.90
2018-12-24T06:51:40.975Z,3.90
2018-12-24T06:54:09.680Z,3.90
2018-12-24T06:56:38.419Z,3.90
2018-12-24T06:59:07.156Z,4.00
2018-12-24T07:01:35.880Z,4.00
2018-12-24T07:04:04.610Z,4.10
2018-12-24T07:06:33.372Z,4.10
2018-12-24T07:09:02.092Z,4.10
2018-12-24T07:11:30.835Z,4.10
2018-12-24T07:13:59.583Z,4.10
2018-12-24T07:16:28.375Z,4.10
2018-12-24T07:18:57.067Z,4.10
2018-12-24T07:21:25.783Z,4.10
2018-12-24T07:23:55.439Z,4.10
2018-12-24T07:26:24.139Z,4.10
2018-12-24T07:28:59.036Z,4.20
2018-12-24T07:31:23.263Z,4.20
2018-12-24T07:33:51.963Z,4.20
2018-12-24T07:36:20.654Z,4.20
2018-12-24T07:38:49.356Z,4.30
2018-12-24T07:41:18.039Z,4.20
2018-12-24T07:43:47.688Z,4.20
2018-12-24T07:46:16.380Z,4.10
2018-12-24T07:48:45.083Z,4.00
2018-12-24T07:53:42.240Z,3.80
2018-12-24T07:56:10.919Z,3.80
2018-12-24T07:58:39.624Z,3.70
2018-12-24T08:01:08.310Z,3.70
2018-12-24T08:03:37.019Z,3.70
2018-12-24T08:06:05.695Z,3.70
2018-12-24T08:08:34.403Z,3.70
2018-12-24T08:11:03.087Z,4.30
2018-12-24T08:13:31.798Z,3.90
2018-12-24T08:16:00.492Z,4.00
2018-12-24T08:18:29.190Z,4.10
2018-12-24T08:20:57.888Z,4.10
2018-12-24T08:23:26.575Z,4.10
2018-12-24T08:25:55.280Z,4.10
2018-12-24T08:28:23.972Z,4.10
2018-12-24T08:33:21.093Z,4.30
2018-12-24T08:35:49.803Z,4.50
2018-12-24T08:38:18.504Z,4.50
2018-12-24T08:40:47.203Z,4.60
2018-12-24T08:48:13.666Z,5.00
2018-12-24T08:50:42.372Z,5.10
2018-12-24T08:53:12.765Z,5.10
2018-12-24T08:55:41.593Z,5.10
2018-12-24T08:58:10.348Z,5.00
2018-12-24T09:00:39.115Z,5.00
2018-12-24T09:03:07.823Z,5.10
2018-12-24T09:05:36.588Z,5.10
2018-12-24T09:08:05.329Z,5.00
2018-12-24T09:15:32.072Z,5.50
2018-12-24T09:20:29.316Z,5.90
2018-12-24T09:22:58.059Z,5.80
2018-12-24T09:25:26.828Z,5.80
2018-12-24T09:27:55.641Z,5.80
2018-12-24T09:30:24.396Z,5.80
2018-12-24T09:33:01.079Z,5.70
2018-12-24T09:35:29.829Z,5.60
2018-12-24T09:37:58.580Z,5.50
2018-12-24T09:40:27.304Z,5.40
2018-12-24T09:42:59.084Z,5.50
2018-12-24T09:45:27.794Z,5.40
2018-12-24T09:47:56.540Z,5.40
2018-12-24T09:50:25.265Z,5.40
2018-12-24T09:52:55.583Z,5.50
2018-12-24T09:55:24.344Z,5.60
2018-12-24T09:57:53.079Z,5.70
2018-12-24T10:00:21.789Z,5.80
2018-12-24T10:03:06.668Z,5.90
2018-12-24T10:08:06.876Z,6.00
2018-12-24T10:10:35.559Z,6.00
2018-12-24T10:13:04.260Z,6.00
2018-12-24T10:15:32.949Z,5.90
2018-12-24T10:18:01.648Z,5.90
2018-12-24T10:20:30.328Z,5.90
2018-12-24T10:23:04.219Z,5.90
2018-12-24T10:25:32.902Z,5.70
2018-12-24T10:28:01.612Z,6.30
2018-12-24T10:30:30.295Z,6.60
2018-12-24T10:33:16.177Z,6.90
2018-12-24T10:38:14.223Z,7.00
2018-12-24T10:40:43.868Z,6.70
2018-12-24T10:45:46.059Z,7.20
2018-12-24T10:48:14.751Z,7.50
2018-12-24T10:50:43.459Z,8.00
2018-12-24T10:53:12.145Z,8.40
2018-12-24T10:55:40.843Z,8.70
2018-12-24T10:58:09.531Z,8.60
2018-12-24T11:00:38.231Z,8.00
2018-12-24T11:03:10.111Z,8.00
2018-12-24T11:05:38.835Z,7.40
2018-12-24T11:08:07.549Z,7.10
2018-12-24T11:10:36.287Z,6.60
2018-12-24T11:13:06.910Z,6.70
2018-12-24T11:15:35.621Z,6.60
2018-12-24T11:18:04.395Z,6.50
2018-12-24T11:20:33.096Z,6.50
2018-12-24T11:23:13.824Z,6.40
2018-12-24T11:25:42.520Z,6.40
2018-12-24T11:28:11.219Z,6.40
2018-12-24T11:30:39.915Z,6.30
2018-12-24T11:33:09.589Z,6.10
2018-12-24T11:35:38.291Z,6.20
2018-12-24T11:38:07.003Z,6.20
2018-12-24T11:40:35.699Z,6.10
2018-12-24T11:43:08.427Z,6.10
2018-12-24T11:45:37.131Z,6.00
2018-12-24T11:48:05.815Z,5.90
2018-12-24T11:50:34.526Z,5.80
2018-12-24T11:53:03.211Z,5.80
2018-12-24T11:55:31.923Z,5.70
2018-12-24T11:58:00.611Z,5.60
2018-12-24T12:00:29.303Z,5.60
2018-12-24T12:02:58.084Z,5.50
2018-12-24T12:05:26.771Z,5.50
2018-12-24T12:07:55.476Z,5.50
2018-12-24T12:10:24.181Z,5.50
2018-12-24T12:12:52.880Z,5.50
2018-12-24T12:15:21.575Z,5.40
2018-12-24T12:17:50.271Z,5.30
2018-12-24T12:20:18.963Z,5.40
2018-12-24T12:22:56.860Z,5.40
2018-12-24T12:25:25.548Z,5.30
2018-12-24T12:27:54.256Z,5.20
2018-12-24T12:30:22.947Z,5.20
2018-12-24T12:32:51.652Z,5.40
2018-12-24T12:35:20.352Z,5.50
2018-12-24T12:37:49.052Z,5.60
2018-12-24T12:40:17.748Z,5.40
2018-12-24T12:42:49.498Z,5.40
2018-12-24T12:45:18.191Z,5.50
2018-12-24T12:47:46.900Z,5.50
2018-12-24T12:50:15.595Z,5.40
2018-12-24T12:52:44.276Z,5.50
2018-12-24T12:55:18.944Z,5.60
2018-12-24T12:57:47.652Z,6.00
2018-12-24T13:00:16.330Z,6.10
2018-12-24T13:02:47.650Z,6.70
2018-12-24T13:05:16.352Z,8.20
2018-12-24T13:07:45.067Z,9.10
2018-12-24T13:10:13.771Z,8.60
2018-12-24T13:12:50.532Z,8.10
2018-12-24T13:15:19.219Z,7.90
2018-12-24T13:17:47.919Z,7.90
2018-12-24T13:20:24.790Z,7.90
2018-12-24T13:22:47.045Z,7.50
2018-12-24T13:25:15.743Z,7.20
2018-12-24T13:27:44.431Z,6.80
2018-12-24T13:30:13.136Z,6.60
2018-12-24T13:32:41.825Z,6.20
2018-12-24T13:35:10.548Z,6.00
2018-12-24T13:37:39.236Z,5.60
2018-12-24T13:40:07.947Z,5.40
2018-12-24T13:42:39.733Z,5.10
2018-12-24T13:45:08.427Z,4.90
2018-12-24T13:47:37.115Z,5.00
2018-12-24T13:50:06.184Z,4.90
2018-12-24T13:53:32.371Z,5.00
2018-12-24T13:56:00.999Z,4.90
2018-12-24T13:58:29.583Z,4.90
2018-12-24T14:00:58.187Z,4.80
2018-12-24T14:03:26.784Z,4.80
2018-12-24T14:05:55.383Z,4.70
2018-12-24T14:08:23.968Z,4.70
2018-12-24T14:10:52.576Z,4.60
2018-12-24T14:13:21.155Z,4.50
2018-12-24T14:15:49.755Z,4.40
2018-12-24T14:18:18.339Z,4.40
2018-12-24T14:20:46.942Z,4.30
2018-12-24T14:23:15.533Z,4.40
2018-12-24T14:25:44.219Z,4.70
2018-12-24T14:28:12.808Z,5.20
2018-12-24T14:30:41.408Z,5.00
2018-12-24T14:33:10.995Z,5.00
2018-12-24T14:35:39.594Z,4.50
2018-12-24T14:38:08.179Z,4.30
2018-12-24T14:40:36.763Z,4.30
2018-12-24T14:43:06.361Z,4.30
2018-12-24T14:45:34.943Z,4.10
2018-12-24T14:48:03.550Z,4.10
2018-12-24T14:50:32.137Z,4.10
2018-12-24T14:53:03.867Z,4.00
2018-12-24T14:55:32.457Z,4.00
2018-12-24T14:58:01.046Z,4.00
2018-12-24T15:00:29.631Z,3.90
2018-12-24T15:02:59.244Z,3.80
2018-12-24T15:05:27.835Z,3.80
2018-12-24T15:07:56.435Z,3.60
2018-12-24T15:10:25.015Z,3.60
2018-12-24T15:12:59.402Z,3.60
2018-12-24T15:15:27.979Z,3.50
2018-12-24T15:17:56.657Z,3.60
2018-12-24T15:20:43.503Z,3.70
2018-12-24T15:23:12.098Z,3.70
2018-12-24T15:25:42.305Z,3.70
2018-12-24T15:28:10.915Z,3.80
2018-12-24T15:30:39.495Z,3.80
2018-12-24T15:33:09.048Z,3.70
2018-12-24T15:35:37.671Z,3.80
2018-12-24T15:38:06.275Z,3.80
2018-12-24T15:40:34.860Z,3.80
2018-12-24T15:43:03.464Z,3.80
2018-12-24T15:45:32.042Z,3.90
2018-12-24T15:48:00.633Z,3.90
2018-12-24T15:50:29.214Z,3.90
2018-12-24T15:52:57.812Z,3.90
2018-12-24T15:55:26.411Z,3.90
2018-12-24T15:57:54.994Z,3.90
2018-12-24T16:00:23.589Z,3.80
2018-12-24T16:03:01.259Z,3.80
2018-12-24T16:05:29.875Z,3.80
2018-12-24T16:07:58.509Z,3.80
2018-12-24T16:10:27.155Z,3.80
2018-12-24T16:12:55.742Z,3.80
2018-12-24T16:15:24.384Z,3.80
2018-12-24T16:17:52.977Z,3.80
2018-12-24T16:20:21.576Z,3.70
2018-12-24T16:22:56.073Z,3.50
2018-12-24T16:25:24.667Z,3.40
2018-12-24T16:27:53.259Z,3.30
2018-12-24T16:30:21.867Z,3.30
2018-12-24T16:32:50.566Z,3.20
2018-12-24T16:35:19.140Z,3.20
2018-12-24T16:37:47.779Z,3.20
2018-12-24T16:40:16.379Z,3.20
2018-12-24T16:42:46.898Z,3.20
2018-12-24T16:45:15.491Z,3.10
2018-12-24T16:47:44.075Z,3.10
2018-12-24T16:50:12.714Z,3.00
2018-12-24T16:52:41.283Z,3.00
2018-12-24T16:55:09.867Z,2.90
2018-12-24T16:57:41.279Z,2.90
2018-12-24T17:00:18.789Z,2.90
2018-12-24T17:02:49.364Z,2.90
2018-12-24T17:05:17.955Z,2.90
2018-12-24T17:07:46.552Z,2.80
2018-12-24T17:12:14.063Z,2.80
2018-12-24T17:14:42.647Z,2.70
2018-12-24T17:17:11.254Z,2.70
2018-12-24T17:19:39.832Z,2.60
2018-12-24T17:22:13.471Z,2.40
2018-12-24T17:24:42.071Z,2.50
2018-12-24T17:27:10.681Z,2.40
2018-12-24T17:29:39.335Z,2.30
2018-12-24T17:32:08.927Z,2.30
2018-12-24T17:34:37.512Z,2.20
2018-12-24T17:37:06.113Z,2.10
2018-12-24T17:39:34.696Z,2.10
2018-12-24T17:42:04.286Z,2.00
2018-12-24T17:44:32.867Z,1.90
2018-12-24T17:47:01.483Z,1.90
2018-12-24T17:49:30.068Z,1.80
2018-12-24T17:51:58.646Z,1.80
2018-12-24T17:54:27.248Z,1.70
2018-12-24T17:56:55.831Z,1.70
2018-12-24T17:59:24.430Z,1.60
2018-12-24T18:01:53.095Z,1.60
2018-12-24T18:04:21.679Z,1.60
2018-12-24T18:06:50.263Z,1.60
2018-12-24T18:09:18.867Z,1.50
2018-12-24T18:11:47.455Z,1.50
2018-12-24T18:14:16.096Z,1.50
2018-12-24T18:16:44.687Z,1.40
2018-12-24T18:19:13.287Z,1.40
2018-12-24T18:21:41.868Z,1.40
2018-12-24T18:24:11.424Z,1.40
2018-12-24T18:26:40.007Z,1.40
2018-12-24T18:29:08.607Z,1.40
2018-12-24T18:31:37.195Z,1.40
2018-12-24T18:34:05.803Z,1.40
2018-12-24T18:36:34.382Z,1.40
2018-12-24T18:39:03.750Z,1.30
2018-12-24T18:41:32.331Z,1.30
2018-12-24T18:44:00.930Z,1.30
2018-12-24T18:46:29.527Z,1.30
2018-12-24T18:48:58.128Z,1.30
2018-12-24T18:51:26.711Z,1.30
2018-12-24T18:53:55.330Z,1.40
2018-12-24T18:56:23.919Z,1.40
2018-12-24T18:58:52.499Z,1.50
2018-12-24T19:01:21.095Z,1.50
2018-12-24T19:03:49.763Z,1.50
2018-12-24T19:06:18.360Z,1.50
2018-12-24T19:08:46.947Z,1.50
2018-12-24T19:11:15.544Z,1.50
2018-12-24T19:13:44.126Z,1.30
2018-12-24T19:16:12.726Z,1.30
2018-12-24T19:18:41.320Z,1.30
2018-12-24T19:21:11.607Z,1.20
2018-12-24T19:23:40.187Z,1.20
2018-12-24T19:26:08.782Z,1.10
2018-12-24T19:28:38.907Z,1.10
2018-12-24T19:31:07.511Z,1.00
2018-12-24T19:33:36.090Z,1.00
2018-12-24T19:36:04.715Z,0.90
2018-12-24T19:38:33.286Z,0.90
2018-12-24T19:41:01.871Z,0.90
2018-12-24T19:43:31.403Z,0.90
2018-12-24T19:45:59.987Z,0.90
2018-12-24T19:48:28.591Z,0.90
2018-12-24T19:50:57.302Z,0.90
2018-12-24T19:53:25.894Z,0.90
2018-12-24T19:55:55.056Z,0.90
2018-12-24T19:58:23.651Z,1.00
2018-12-24T20:00:52.235Z,1.20
2018-12-24T20:03:20.835Z,1.20
2018-12-24T20:05:49.415Z,1.30
2018-12-24T20:08:18.023Z,1.40
2018-12-24T20:10:46.632Z,1.40
2018-12-24T20:13:15.268Z,1.50
2018-12-24T20:15:43.850Z,1.50
2018-12-24T20:18:12.446Z,1.50
2018-12-24T20:20:41.037Z,1.50
2018-12-24T20:23:09.671Z,1.50
2018-12-24T20:25:38.262Z,1.50
2018-12-24T20:28:06.847Z,1.50
2018-12-24T20:30:35.445Z,1.50
2018-12-24T20:33:04.027Z,1.50
2018-12-24T20:35:32.631Z,1.50
2018-12-24T20:38:01.223Z,1.50
2018-12-24T20:40:29.827Z,1.50
2018-12-24T20:42:58.413Z,1.50
2018-12-24T20:45:27.006Z,1.50
2018-12-24T20:47:55.590Z,1.50
2018-12-24T20:50:24.190Z,1.50
2018-12-24T20:52:52.801Z,1.50
2018-12-24T20:55:21.455Z,1.50
2018-12-24T20:57:50.047Z,1.40
2018-12-24T21:00:18.647Z,1.20
2018-12-24T21:02:47.230Z,1.20
2018-12-24T21:05:15.840Z,1.10
2018-12-24T21:07:44.423Z,1.00
2018-12-24T21:10:13.019Z,0.90
2018-12-24T21:12:41.718Z,0.80
2018-12-24T21:15:10.315Z,0.70
2018-12-24T21:17:38.999Z,0.60
2018-12-24T21:20:07.627Z,0.60
2018-12-24T21:22:36.226Z,0.60
2018-12-24T21:25:05.247Z,0.50
2018-12-24T21:27:33.855Z,0.60
2018-12-24T21:30:04.299Z,0.50
2018-12-24T21:32:32.900Z,0.40
2018-12-24T21:35:01.482Z,0.40
2018-12-24T21:37:30.079Z,0.30
2018-12-24T21:39:58.662Z,0.30
2018-12-24T21:42:27.287Z,0.20
2018-12-24T21:44:55.872Z,0.20
2018-12-24T21:47:24.499Z,0.10
2018-12-24T21:49:53.089Z,0.10
2018-12-24T21:52:21.678Z,0.10
2018-12-24T21:54:50.324Z,0.00
2018-12-24T21:57:22.045Z,-0.10
2018-12-24T21:59:50.635Z,-0.10
2018-12-24T22:02:19.247Z,-0.10
2018-12-24T22:04:49.616Z,-0.10
2018-12-24T22:07:18.295Z,-0.10
2018-12-24T22:09:46.885Z,-0.10
2018-12-24T22:12:15.479Z,-0.20
2018-12-24T22:14:44.070Z,-0.20
2018-12-24T22:17:12.688Z,-0.20
2018-12-24T22:19:41.280Z,-0.20
2018-12-24T22:22:18.255Z,-0.30
2018-12-24T22:24:46.844Z,-0.20
2018-12-24T22:27:15.434Z,-0.30
2018-12-24T22:29:44.035Z,-0.30
2018-12-24T22:32:12.624Z,-0.20
2018-12-24T22:34:41.222Z,-0.20
2018-12-24T22:37:09.815Z,-0.20
2018-12-24T22:39:38.501Z,-0.10
2018-12-24T22:42:08.015Z,-0.10
2018-12-24T22:44:36.647Z,-0.10
2018-12-24T22:47:05.243Z,-0.10
2018-12-24T22:49:33.835Z,-0.10
2018-12-24T22:52:02.427Z,-0.10
2018-12-24T22:54:31.047Z,-0.10
2018-12-24T22:56:59.638Z,-0.10
2018-12-24T22:59:28.219Z,-0.20
2018-12-24T23:01:56.819Z,-0.20
2018-12-24T23:04:25.403Z,-0.20
2018-12-24T23:06:54.014Z,-0.20
2018-12-24T23:09:22.655Z,-0.20
2018-12-24T23:11:51.263Z,-0.10
2018-12-24T23:14:19.847Z,-0.10
2018-12-24T23:16:48.447Z,0.00
2018-12-24T23:19:17.026Z,0.00
2018-12-24T23:21:45.625Z,0.10
2018-12-24T23:24:14.215Z,0.10
2018-12-24T23:26:42.812Z,0.10
2018-12-24T23:29:11.401Z,0.10
2018-12-24T23:31:40.000Z,0.10
2018-12-24T23:34:08.600Z,0.20
2018-12-24T23:36:37.215Z,0.10
2018-12-24T23:39:06.844Z,0.10
2018-12-24T23:41:35.427Z,0.10
2018-12-24T23:44:04.028Z,0.10
2018-12-24T23:46:32.610Z,0.10
2018-12-24T23:49:01.209Z,0.10
2018-12-24T23:51:29.791Z,0.10
2018-12-24T23:53:58.396Z,0.10
2018-12-24T23:56:26.979Z,0.20
2018-12-24T23:58:55.570Z,0.20
